Time;durP1;ratioP1;P1;durP2;ratioP2;P2;SDS_P1;SDS_P2;PMS_P1;PMS_P2;Temp;Humidity;BMP_temperature;BMP_pressure;BME280_temperature;BME280_humidity;BME280_pressure;Samples;Min_cycle;Max_cycle;Signal;HPM_P1;HPM_P2
2022/11/18 00:01:33;;;;;;;31.43;14.17;;;;;;;-1.73;83.24;98889.13;4169886;28;21693;-74
2022/11/18 00:04:00;;;;;;;23.80;14.00;;;;;;;-1.68;83.14;98890.59;4168609;28;20239;-70
2022/11/18 00:06:28;;;;;;;26.87;13.97;;;;;;;-1.63;83.18;98884.09;4156279;28;20304;-71
2022/11/18 00:08:55;;;;;;;27.93;13.70;;;;;;;-1.67;82.96;98881.81;4178942;28;20448;-75
2022/11/18 00:14:26;;;;;;;27.57;13.53;;;;;;;-1.68;82.62;98880.16;4152623;28;20344;-71
2022/11/18 00:16:55;;;;;;;24.07;12.47;;;;;;;-1.64;81.29;98876.38;4167782;28;20226;-71
2022/11/18 00:19:27;;;;;;;29.13;14.17;;;;;;;-1.73;81.19;98883.06;4156813;28;20294;-70
2022/11/18 00:21:54;;;;;;;27.03;13.83;;;;;;;-1.73;81.30;98883.91;4164217;28;20240;-73
2022/11/18 00:24:20;;;;;;;34.47;14.27;;;;;;;-1.89;81.39;98874.63;4161999;28;20241;-73
2022/11/18 00:26:47;;;;;;;33.30;15.00;;;;;;;-2.08;81.92;98875.03;4166212;28;21227;-74
2022/11/18 00:29:14;;;;;;;32.63;14.37;;;;;;;-1.99;81.79;98877.88;4160219;28;20361;-72
2022/11/18 00:31:42;;;;;;;28.93;14.17;;;;;;;-1.95;81.89;98876.69;4160928;28;20492;-72
2022/11/18 00:34:11;;;;;;;27.47;14.27;;;;;;;-1.98;80.98;98883.91;4177213;28;20236;-72
2022/11/18 00:36:39;;;;;;;28.23;14.43;;;;;;;-1.97;79.92;98875.13;4175731;28;20256;-69
2022/11/18 00:39:05;;;;;;;23.77;13.67;;;;;;;-1.99;80.09;98874.41;4165149;28;20412;-70
2022/11/18 00:44:17;;;;;;;25.07;13.17;;;;;;;-1.83;80.19;98869.81;4160818;28;20978;-70
2022/11/18 00:46:44;;;;;;;29.10;13.07;;;;;;;-1.90;80.37;98871.16;4161609;28;20378;-69
2022/11/18 00:49:10;;;;;;;26.60;13.73;;;;;;;-1.81;80.64;98875.75;4178033;28;20441;-69
2022/11/18 00:51:37;;;;;;;24.60;13.13;;;;;;;-1.97;81.23;98875.13;4185877;28;20244;-68
2022/11/18 00:54:03;;;;;;;25.80;13.27;;;;;;;-1.86;82.04;98870.03;4176104;28;20345;-69
2022/11/18 00:56:30;;;;;;;26.03;13.13;;;;;;;-1.88;81.51;98871.91;4156231;28;20932;-67
2022/11/18 00:58:56;;;;;;;27.83;13.43;;;;;;;-1.89;81.63;98877.25;4160354;28;20284;-72
2022/11/18 01:01:23;;;;;;;24.17;13.00;;;;;;;-1.91;82.01;98869.50;4157520;28;23640;-68
2022/11/18 01:03:50;;;;;;;27.88;15.02;;;;;;;-1.95;82.00;98874.09;4137123;28;20483;-74
2022/11/18 01:06:16;;;;;;;22.97;13.13;;;;;;;-1.88;82.74;98869.28;4141138;28;20386;-72
2022/11/18 01:08:43;;;;;;;26.50;14.37;;;;;;;-1.84;82.60;98869.94;4170349;28;20677;-69
2022/11/18 01:13:55;;;;;;;25.10;13.20;;;;;;;-1.77;82.42;98872.00;4191895;28;20478;-69
2022/11/18 01:16:23;;;;;;;26.03;13.47;;;;;;;-1.63;82.28;98870.22;4152830;28;20226;-70
2022/11/18 01:18:50;;;;;;;26.57;13.80;;;;;;;-1.59;81.88;98866.44;4154569;28;20313;-69
2022/11/18 01:21:16;;;;;;;29.97;14.83;;;;;;;-1.75;82.07;98875.34;4187307;28;20234;-69
2022/11/18 01:23:43;;;;;;;27.37;14.43;;;;;;;-1.99;82.97;98870.03;4154881;28;20244;-74
2022/11/18 01:26:12;;;;;;;26.83;14.10;;;;;;;-1.87;83.00;98860.56;4160000;28;20659;-70
2022/11/18 01:28:39;;;;;;;25.80;13.30;;;;;;;-1.84;83.34;98860.34;4171925;28;20234;-70
2022/11/18 01:31:13;;;;;;;27.10;13.57;;;;;;;-1.94;83.01;98854.09;4166891;28;20763;-70
2022/11/18 01:33:40;;;;;;;25.93;13.90;;;;;;;-1.80;82.76;98861.78;4151982;28;20244;-72
2022/11/18 01:36:21;;;;;;;31.70;13.93;;;;;;;-1.83;83.10;98856.78;4152075;28;21011;-73
2022/11/18 01:38:48;;;;;;;26.83;13.50;;;;;;;-1.82;83.38;98853.25;4163573;28;20226;-71
2022/11/18 01:41:16;;;;;;;27.00;14.00;;;;;;;-1.75;83.56;98864.91;4168418;28;20228;-72
2022/11/18 01:43:57;;;;;;;29.53;14.30;;;;;;;-1.85;83.36;98850.00;4162252;28;20266;-70
2022/11/18 01:46:29;;;;;;;24.37;13.53;;;;;;;-1.93;83.51;98850.53;4156829;28;20305;-69
2022/11/18 01:49:07;;;;;;;23.40;12.97;;;;;;;-1.81;84.14;98843.66;4155095;28;26490;-69
2022/11/18 01:51:38;;;;;;;25.77;13.20;;;;;;;-1.85;84.22;98842.19;4158202;28;25343;-70
2022/11/18 01:54:07;;;;;;;28.23;13.83;;;;;;;-1.68;83.92;98844.47;4148972;28;20293;-69
2022/11/18 01:56:39;;;;;;;24.60;13.30;;;;;;;-1.70;83.58;98843.75;4160134;28;22448;-68
2022/11/18 01:59:08;;;;;;;24.77;12.93;;;;;;;-1.63;83.71;98838.94;4165830;28;23143;-69
2022/11/18 02:01:35;;;;;;;25.23;13.83;;;;;;;-1.63;83.32;98836.31;4142227;28;20241;-70
2022/11/18 02:04:01;;;;;;;28.00;13.37;;;;;;;-1.67;84.04;98822.66;4148429;28;20236;-69
2022/11/18 02:06:28;;;;;;;23.37;13.60;;;;;;;-1.63;83.76;98825.91;4157114;28;20237;-71
2022/11/18 02:08:55;;;;;;;23.70;12.80;;;;;;;-1.57;83.72;98830.66;4169143;28;20483;-70
2022/11/18 02:14:08;;;;;;;23.07;12.40;;;;;;;-1.54;83.48;98830.47;4186183;28;20357;-70
2022/11/18 02:16:59;;;;;;;23.47;13.37;;;;;;;-1.47;83.60;98831.69;4153051;28;23140;-70
2022/11/18 02:19:48;;;;;;;23.30;12.33;;;;;;;-1.39;83.25;98828.53;4164833;28;20227;-69
2022/11/18 02:22:51;;;;;;;22.57;11.93;;;;;;;-1.43;82.93;98833.13;4168982;28;22098;-69
2022/11/18 02:25:32;;;;;;;27.57;12.97;;;;;;;-1.42;83.08;98834.81;4176314;28;20245;-69
2022/11/18 02:28:16;;;;;;;22.33;11.67;;;;;;;-1.39;83.38;98831.97;4154803;28;20256;-71
2022/11/18 02:31:11;;;;;;;22.90;11.23;;;;;;;-1.33;83.47;98831.56;4163813;28;20272;-69
2022/11/18 02:33:53;;;;;;;22.97;11.50;;;;;;;-1.36;82.44;98838.75;4157362;28;20266;-71
2022/11/18 02:36:39;;;;;;;18.37;11.10;;;;;;;-1.35;82.76;98841.25;4170937;28;20652;-70
2022/11/18 02:39:16;;;;;;;23.70;11.37;;;;;;;-1.40;83.18;98838.16;4172493;28;20299;-69
2022/11/18 02:41:45;;;;;;;21.03;11.73;;;;;;;-1.41;83.40;98836.47;4146923;28;20688;-67
2022/11/18 02:44:14;;;;;;;22.10;11.90;;;;;;;-1.36;83.41;98833.53;4168911;28;20327;-70
2022/11/18 02:46:44;;;;;;;21.90;11.10;;;;;;;-1.34;83.77;98831.66;4175844;28;21932;-70
2022/11/18 02:49:20;;;;;;;20.73;11.53;;;;;;;-1.45;84.18;98827.22;4160083;28;20345;-70
2022/11/18 02:51:48;;;;;;;23.10;12.27;;;;;;;-1.44;83.78;98828.88;4166204;28;25705;-69
2022/11/18 02:54:16;;;;;;;20.70;11.57;;;;;;;-1.44;83.83;98830.66;4172492;28;22049;-70
2022/11/18 02:56:43;;;;;;;21.63;11.33;;;;;;;-1.42;83.72;98829.59;4170495;28;20297;-70
2022/11/18 02:59:09;;;;;;;19.87;10.87;;;;;;;-1.37;83.42;98822.25;4150308;28;22282;-71
2022/11/18 03:01:36;;;;;;;22.43;10.83;;;;;;;-1.39;84.40;98829.38;4170363;28;20236;-70
2022/11/18 03:04:03;;;;;;;20.20;10.97;;;;;;;-1.40;84.56;98829.50;4146249;28;22031;-69
2022/11/18 03:06:35;;;;;;;21.03;12.00;;;;;;;-1.40;84.31;98832.09;4142926;28;21429;-70
2022/11/18 03:09:13;;;;;;;18.57;10.83;;;;;;;-1.40;84.45;98826.88;4163700;28;20246;-70
2022/11/18 03:11:54;;;;;;;20.10;10.90;;;;;;;-1.42;84.36;98820.94;4151205;28;20247;-70
2022/11/18 03:14:50;;;;;;;20.67;10.43;;;;;;;-1.43;85.07;98822.69;4150967;28;20223;-69
2022/11/18 03:17:19;;;;;;;21.23;10.93;;;;;;;-1.44;84.65;98810.59;4144100;28;20330;-69
2022/11/18 03:20:02;;;;;;;19.87;11.30;;;;;;;-1.40;85.11;98817.28;4163817;28;20345;-70
2022/11/18 03:22:45;;;;;;;22.97;12.90;;;;;;;-1.49;85.44;98810.09;4154734;28;21204;-71
2022/11/18 03:25:22;;;;;;;21.83;11.90;;;;;;;-1.60;86.14;98807.41;4151083;28;20759;-71
2022/11/18 03:28:26;;;;;;;22.17;12.40;;;;;;;-1.58;86.99;98797.72;4167270;28;22509;-70
2022/11/18 03:30:58;;;;;;;25.93;13.27;;;;;;;-1.51;87.16;98804.16;4163742;28;20437;-70
2022/11/18 03:33:30;;;;;;;29.93;14.43;;;;;;;-1.63;87.99;98799.81;4145787;28;20310;-69
2022/11/18 03:35:57;;;;;;;29.97;14.57;;;;;;;-1.64;88.56;98792.91;4168443;28;20242;-68
2022/11/18 03:38:28;;;;;;;32.30;15.83;;;;;;;-1.68;89.02;98791.50;4164423;28;20226;-68
2022/11/18 03:40:59;;;;;;;34.47;16.53;;;;;;;-1.67;89.45;98793.13;4154561;28;20230;-68
2022/11/18 03:43:30;;;;;;;30.90;14.63;;;;;;;-1.73;90.01;98794.41;4138613;28;20658;-68
2022/11/18 03:46:03;;;;;;;27.50;14.40;;;;;;;-1.89;90.99;98791.22;4149697;28;21456;-68
2022/11/18 03:48:33;;;;;;;24.50;11.33;;;;;;;-2.09;90.91;98803.00;4155702;28;20639;-68
2022/11/18 03:51:05;;;;;;;22.70;11.43;;;;;;;-2.13;91.11;98797.19;4151408;28;20245;-68
2022/11/18 03:53:34;;;;;;;21.90;10.43;;;;;;;-2.20;91.60;98801.97;4149695;28;20235;-68
2022/11/18 03:56:15;;;;;;;20.23;9.93;;;;;;;-2.18;92.02;98801.84;4177245;28;21432;-67
2022/11/18 03:58:54;;;;;;;17.73;9.13;;;;;;;-2.13;91.73;98797.19;4172590;28;20314;-68
2022/11/18 04:01:33;;;;;;;17.60;9.50;;;;;;;-2.32;91.18;98797.56;4153735;28;20235;-69
2022/11/18 04:04:00;;;;;;;18.67;9.50;;;;;;;-2.21;91.33;98804.69;4157490;28;20242;-69
2022/11/18 04:06:42;;;;;;;15.93;8.83;;;;;;;-2.24;91.88;98802.28;4167919;28;20364;-69
2022/11/18 04:09:12;;;;;;;20.17;8.97;;;;;;;-2.21;91.49;98800.28;4164257;28;20629;-68
2022/11/18 04:12:02;;;;;;;16.97;8.90;;;;;;;-2.26;91.22;98798.94;4157086;28;20239;-68
2022/11/18 04:14:31;;;;;;;20.17;10.37;;;;;;;-2.20;91.62;98803.72;4161689;28;21102;-70
2022/11/18 04:16:57;;;;;;;16.63;8.93;;;;;;;-2.10;90.94;98802.19;4154446;28;20314;-69
2022/11/18 04:19:24;;;;;;;16.93;8.23;;;;;;;-2.12;91.50;98809.25;4170286;28;22708;-69
2022/11/18 04:21:50;;;;;;;16.77;9.10;;;;;;;-2.29;91.41;98807.81;4151907;28;20224;-67
2022/11/18 04:24:17;;;;;;;19.53;10.47;;;;;;;-2.25;91.71;98803.22;4160357;28;20232;-68
2022/11/18 04:26:43;;;;;;;20.33;10.47;;;;;;;-2.30;91.86;98803.53;4162267;28;20377;-68
2022/11/18 04:29:10;;;;;;;25.23;11.27;;;;;;;-2.39;92.98;98804.13;4146191;28;20259;-68
2022/11/18 04:31:36;;;;;;;23.43;10.93;;;;;;;-2.45;94.76;98804.56;4155368;28;21282;-69
2022/11/18 04:34:03;;;;;;;26.57;11.53;;;;;;;-2.53;95.80;98794.66;4170586;28;20456;-69
2022/11/18 04:36:29;;;;;;;26.20;12.20;;;;;;;-2.62;96.96;98797.91;4153751;28;20239;-68
2022/11/18 04:38:56;;;;;;;25.10;11.40;;;;;;;-2.53;97.27;98799.84;4155936;28;20231;-68
2022/11/18 04:41:54;;;;;;;26.23;12.03;;;;;;;-2.51;96.90;98791.94;4159546;28;21413;-67
2022/11/18 04:44:11;;;;;;;28.60;12.43;;;;;;;-2.64;95.93;98795.38;4166323;28;20309;-68
2022/11/18 04:46:42;;;;;;;24.87;12.17;;;;;;;-2.68;96.76;98796.53;4153491;28;20402;-69
2022/11/18 04:49:10;;;;;;;22.77;11.43;;;;;;;-2.64;97.11;98795.38;4154018;28;20738;-68
2022/11/18 04:51:37;;;;;;;25.97;11.80;;;;;;;-2.64;96.32;98792.78;4155664;28;20392;-68
2022/11/18 04:54:03;;;;;;;23.53;11.47;;;;;;;-2.69;96.47;98796.59;4163014;28;21347;-67
2022/11/18 04:56:30;;;;;;;22.80;10.57;;;;;;;-2.67;97.14;98792.13;4148761;28;20384;-65
2022/11/18 04:59:01;;;;;;;21.10;10.50;;;;;;;-2.71;97.25;98794.13;4173030;28;21776;-68
2022/11/18 05:01:28;;;;;;;24.63;11.20;;;;;;;-2.67;98.10;98800.81;4172322;28;20225;-67
2022/11/18 05:03:55;;;;;;;27.93;11.27;;;;;;;-2.55;98.40;98791.34;4158211;28;20231;-68
2022/11/18 05:06:22;;;;;;;27.37;10.90;;;;;;;-2.47;98.53;98793.41;4160873;28;20230;-68
2022/11/18 05:08:49;;;;;;;23.57;11.10;;;;;;;-2.56;98.91;98794.88;4180949;28;20234;-69
2022/11/18 05:14:01;;;;;;;20.97;9.80;;;;;;;-2.48;98.95;98796.94;4182363;28;20310;-68
2022/11/18 05:16:27;;;;;;;21.43;9.80;;;;;;;-2.36;98.90;98801.34;4150057;28;20254;-68
2022/11/18 05:18:54;;;;;;;20.57;8.73;;;;;;;-2.33;98.53;98796.75;4173681;28;21345;-68
2022/11/18 05:21:20;;;;;;;20.87;9.77;;;;;;;-2.42;98.11;98794.78;4161913;28;20343;-67
2022/11/18 05:23:47;;;;;;;19.80;9.07;;;;;;;-2.28;97.02;98798.22;4161383;28;20238;-69
2022/11/18 05:26:13;;;;;;;19.97;8.53;;;;;;;-2.48;96.90;98796.94;4168114;28;20606;-70
2022/11/18 05:28:40;;;;;;;15.97;8.47;;;;;;;-2.46;97.75;98797.69;4149494;28;21903;-71
2022/11/18 05:31:08;;;;;;;17.70;8.17;;;;;;;-2.30;97.06;98790.50;4154647;28;20230;-69
2022/11/18 05:33:35;;;;;;;15.90;7.30;;;;;;;-2.38;96.40;98793.63;4156176;28;20249;-70
2022/11/18 05:36:09;;;;;;;16.87;9.00;;;;;;;-2.43;96.29;98790.50;4160046;28;20234;-69
2022/11/18 05:38:36;;;;;;;15.50;7.57;;;;;;;-2.57;95.01;98788.84;4152637;28;20235;-69
2022/11/18 05:41:03;;;;;;;16.03;7.87;;;;;;;-2.70;95.41;98787.16;4152288;28;20238;-69
2022/11/18 05:43:30;;;;;;;16.80;6.87;;;;;;;-2.68;95.45;98783.50;4176108;28;20560;-69
2022/11/18 05:45:57;;;;;;;18.17;7.27;;;;;;;-2.73;95.35;98782.97;4181050;28;29108;-67
2022/11/18 05:48:24;;;;;;;13.23;6.50;;;;;;;-2.77;95.28;98786.72;4159784;28;22085;-70
2022/11/18 05:50:52;;;;;;;19.70;7.80;;;;;;;-2.78;95.06;98783.28;4159014;28;20282;-67
2022/11/18 05:53:23;;;;;;;14.90;7.30;;;;;;;-2.77;94.51;98782.34;4173995;28;20246;-68
2022/11/18 05:55:56;;;;;;;13.97;7.07;;;;;;;-2.77;93.97;98776.31;4169227;28;20288;-68
2022/11/18 05:58:23;;;;;;;14.13;6.83;;;;;;;-2.86;94.35;98780.34;4139475;28;22343;-69
2022/11/18 06:00:51;;;;;;;15.13;6.93;;;;;;;-2.79;94.40;98783.38;4166014;28;22309;-70
2022/11/18 06:03:21;;;;;;;16.23;7.40;;;;;;;-2.74;93.98;98783.91;4177589;28;21645;-71
2022/11/18 06:05:57;;;;;;;14.13;6.67;;;;;;;-2.72;93.40;98789.00;4179836;28;20312;-69
2022/11/18 06:08:28;;;;;;;12.43;6.00;;;;;;;-2.65;92.60;98785.06;4162116;28;20437;-71
2022/11/18 06:10:55;;;;;;;13.90;5.77;;;;;;;-2.79;92.05;98785.97;4184886;28;21340;-72
2022/11/18 06:13:49;;;;;;;15.60;6.27;;;;;;;-2.74;91.37;98781.28;4177651;28;21258;-69
2022/11/18 06:16:17;;;;;;;10.47;5.57;;;;;;;-2.69;91.62;98788.78;4183108;28;23304;-69
2022/11/18 06:18:44;;;;;;;14.97;6.27;;;;;;;-2.67;91.33;98790.41;4148342;28;20238;-71
2022/11/18 06:21:10;;;;;;;14.10;6.07;;;;;;;-2.64;91.71;98789.34;4150947;28;20234;-69
2022/11/18 06:23:39;;;;;;;10.13;5.77;;;;;;;-2.62;91.72;98790.09;4165637;28;25219;-72
2022/11/18 06:26:06;;;;;;;11.73;6.67;;;;;;;-2.60;91.37;98791.66;4151430;28;20243;-69
2022/11/18 06:28:33;;;;;;;14.90;5.87;;;;;;;-2.57;90.57;98795.81;4165085;28;20230;-69
2022/11/18 06:30:59;;;;;;;11.27;6.20;;;;;;;-2.66;90.68;98799.84;4168902;28;20230;-70
2022/11/18 06:33:26;;;;;;;10.90;5.57;;;;;;;-2.66;91.01;98794.66;4174023;28;20245;-69
2022/11/18 06:35:52;;;;;;;13.83;6.80;;;;;;;-2.68;91.53;98791.31;4155135;28;20261;-72
2022/11/18 06:38:23;;;;;;;11.20;5.53;;;;;;;-2.62;91.02;98796.13;4201058;28;21771;-73
2022/11/18 06:40:50;;;;;;;13.27;5.87;;;;;;;-2.56;91.83;98797.47;4224768;28;20246;-73
2022/11/18 06:48:50;;;;;;;12.97;6.77;;;;;;;-2.77;93.70;98800.56;4178389;28;20231;-72
2022/11/18 06:51:17;;;;;;;14.57;7.43;;;;;;;-2.71;94.10;98804.53;4163227;28;20240;-76
2022/11/18 06:53:43;;;;;;;13.87;7.10;;;;;;;-2.69;94.66;98801.81;4158235;28;21240;-72
2022/11/18 06:56:12;;;;;;;16.27;7.27;;;;;;;-2.64;93.86;98803.19;4174518;28;21000;-74
2022/11/18 06:58:39;;;;;;;14.40;6.73;;;;;;;-2.66;93.54;98807.66;4180929;28;21816;-72
2022/11/18 07:01:16;;;;;;;14.57;7.17;;;;;;;-2.64;92.76;98807.56;4191042;28;21043;-74
2022/11/18 07:03:44;;;;;;;12.27;6.20;;;;;;;-2.63;93.20;98804.84;4163588;28;21303;-71
2022/11/18 07:06:13;;;;;;;18.60;6.90;;;;;;;-2.57;92.42;98804.47;4190789;28;22007;-75
2022/11/18 07:08:40;;;;;;;16.40;6.93;;;;;;;-2.49;92.97;98800.50;4186008;28;20366;-73
2022/11/18 07:11:10;;;;;;;12.57;5.87;;;;;;;-2.50;92.40;98810.09;4161489;28;20297;-70
2022/11/18 07:13:36;;;;;;;10.90;5.80;;;;;;;-2.44;91.69;98814.03;4173716;28;20305;-72
2022/11/18 07:16:11;;;;;;;11.20;5.73;;;;;;;-2.37;91.10;98817.91;4157929;28;20805;-68
2022/11/18 07:18:40;;;;;;;13.10;5.87;;;;;;;-2.38;90.96;98818.84;4183019;28;20273;-69
2022/11/18 07:21:09;;;;;;;13.73;6.27;;;;;;;-2.30;90.32;98816.53;4181206;28;20508;-67
2022/11/18 07:23:35;;;;;;;12.07;6.37;;;;;;;-2.32;90.26;98818.41;4160752;28;20232;-65
2022/11/18 07:26:02;;;;;;;10.90;6.17;;;;;;;-2.41;90.72;98819.03;4156374;28;20261;-65
2022/11/18 07:28:29;;;;;;;13.00;6.33;;;;;;;-2.49;90.72;98814.34;4163310;28;25851;-68
2022/11/18 07:31:03;;;;;;;12.97;5.93;;;;;;;-2.37;90.58;98816.13;4161046;28;25365;-69
2022/11/18 07:33:31;;;;;;;8.87;5.03;;;;;;;-2.32;90.36;98823.63;4142126;28;22311;-66
2022/11/18 07:36:03;;;;;;;10.87;5.83;;;;;;;-2.34;90.29;98820.31;4175502;28;21890;-59
2022/11/18 07:38:30;;;;;;;11.90;5.90;;;;;;;-2.28;90.37;98825.09;4183128;28;20229;-67
2022/11/18 07:41:03;;;;;;;13.10;6.13;;;;;;;-2.24;89.50;98830.94;4168302;28;20254;-69
2022/11/18 07:43:30;;;;;;;13.10;5.90;;;;;;;-2.18;89.16;98820.09;4168747;28;20252;-65
2022/11/18 07:45:56;;;;;;;12.97;6.50;;;;;;;-2.10;88.96;98824.81;4155163;28;20418;-67
2022/11/18 07:48:23;;;;;;;13.53;5.93;;;;;;;-2.15;87.68;98831.16;4155572;28;20244;-65
2022/11/18 07:50:51;;;;;;;10.43;5.03;;;;;;;-2.15;87.57;98836.38;4170489;28;21461;-71
2022/11/18 07:53:17;;;;;;;9.13;4.83;;;;;;;-2.17;88.25;98838.25;4159403;28;21797;-67
2022/11/18 07:55:44;;;;;;;9.27;5.07;;;;;;;-2.13;87.79;98841.50;4163861;28;21016;-66
2022/11/18 07:58:11;;;;;;;10.87;5.03;;;;;;;-2.03;87.28;98836.47;4174616;28;20313;-68
2022/11/18 08:00:37;;;;;;;9.30;4.90;;;;;;;-2.08;86.64;98843.75;4167386;28;20231;-64
2022/11/18 08:03:05;;;;;;;10.70;4.90;;;;;;;-2.20;87.43;98835.00;4165365;28;20271;-61
2022/11/18 08:05:31;;;;;;;10.07;5.10;;;;;;;-2.06;85.95;98839.28;4162017;28;20353;-65
2022/11/18 08:07:58;;;;;;;8.97;5.00;;;;;;;-2.19;86.25;98842.72;4165270;28;20347;-64
2022/11/18 08:10:25;;;;;;;9.17;5.03;;;;;;;-2.10;87.44;98843.03;4145218;28;20234;-67
2022/11/18 08:12:51;;;;;;;10.87;5.33;;;;;;;-2.07;87.16;98848.88;4175767;28;20248;-65
2022/11/18 08:15:17;;;;;;;11.53;5.70;;;;;;;-1.94;87.10;98852.31;4185331;28;22216;-62
2022/11/18 08:17:44;;;;;;;8.20;5.13;;;;;;;-1.94;86.77;98859.31;4166873;28;20240;-64
2022/11/18 08:20:11;;;;;;;9.67;5.07;;;;;;;-1.93;86.04;98856.56;4178498;28;20293;-63
2022/11/18 08:22:37;;;;;;;11.43;5.57;;;;;;;-2.08;86.78;98851.56;4158434;28;20325;-63
2022/11/18 08:25:05;;;;;;;10.00;4.63;;;;;;;-1.99;87.24;98862.22;4159887;28;20245;-64
2022/11/18 08:27:31;;;;;;;9.97;5.10;;;;;;;-1.87;86.51;98859.69;4161843;28;20406;-65
2022/11/18 08:29:58;;;;;;;8.70;4.83;;;;;;;-1.92;87.02;98873.03;4169840;28;20245;-65
2022/11/18 08:32:24;;;;;;;9.03;5.10;;;;;;;-1.91;87.15;98874.72;4165840;28;20239;-66
2022/11/18 08:34:51;;;;;;;14.83;6.00;;;;;;;-1.91;86.12;98878.16;4176089;28;20235;-65
2022/11/18 08:37:18;;;;;;;9.30;4.90;;;;;;;-2.10;86.60;98869.09;4181499;28;20385;-65
2022/11/18 08:39:45;;;;;;;9.53;5.00;;;;;;;-2.04;86.75;98869.50;4167672;28;20382;-67
2022/11/18 08:42:11;;;;;;;10.30;5.40;;;;;;;-2.02;85.89;98872.84;4149182;28;20996;-63
2022/11/18 08:44:38;;;;;;;10.07;4.93;;;;;;;-2.09;87.28;98868.16;4156288;28;20262;-64
2022/11/18 08:47:04;;;;;;;9.33;5.13;;;;;;;-1.93;87.26;98871.38;4174687;28;20293;-66
2022/11/18 08:49:31;;;;;;;12.37;4.83;;;;;;;-1.92;87.22;98867.81;4176207;28;20244;-64
2022/11/18 08:51:58;;;;;;;8.97;4.57;;;;;;;-1.88;85.35;98877.13;4167304;28;21691;-65
2022/11/18 08:54:24;;;;;;;9.57;4.50;;;;;;;-1.86;84.87;98877.03;4157689;28;21019;-66
2022/11/18 08:56:51;;;;;;;9.10;4.63;;;;;;;-1.85;84.99;98879.53;4157180;28;20257;-67
2022/11/18 08:59:17;;;;;;;7.23;4.23;;;;;;;-1.78;84.37;98880.78;4174790;28;22975;-67
2022/11/18 09:01:45;;;;;;;9.33;4.60;;;;;;;-1.92;85.46;98878.25;4176903;28;20286;-65
2022/11/18 09:04:11;;;;;;;9.67;5.30;;;;;;;-1.83;86.37;98885.44;4171696;28;20239;-69
2022/11/18 09:06:39;;;;;;;10.60;5.37;;;;;;;-1.72;84.72;98880.34;4170340;28;20397;-64
2022/11/18 09:09:07;;;;;;;11.60;5.53;;;;;;;-1.53;83.33;98881.69;4197593;28;20250;-66
2022/11/18 09:11:33;;;;;;;10.67;5.60;;;;;;;-1.60;83.00;98883.03;4193841;28;20237;-64
2022/11/18 09:14:00;;;;;;;11.13;5.47;;;;;;;-1.57;82.09;98888.03;4159012;28;20247;-67
2022/11/18 09:16:47;;;;;;;8.30;4.80;;;;;;;-1.61;83.10;98881.38;4207620;28;20243;-66
2022/11/18 09:19:15;;;;;;;9.63;5.13;;;;;;;-1.54;83.43;98878.25;4187264;28;20248;-63
2022/11/18 09:22:02;;;;;;;9.93;4.80;;;;;;;-1.57;83.47;98878.47;4196907;28;20238;-69
2022/11/18 09:24:29;;;;;;;8.40;4.77;;;;;;;-1.46;82.18;98884.69;4189026;28;20393;-68
2022/11/18 09:26:56;;;;;;;9.97;5.83;;;;;;;-1.62;82.14;98887.53;4175332;28;20735;-72
2022/11/18 09:29:24;;;;;;;9.97;5.63;;;;;;;-1.73;82.43;98880.47;4176922;28;20316;-67
2022/11/18 09:31:52;;;;;;;8.77;4.80;;;;;;;-1.79;82.87;98876.50;4178380;28;21074;-65
2022/11/18 09:34:20;;;;;;;12.13;5.13;;;;;;;-1.76;82.49;98867.63;4169342;28;21319;-66
2022/11/18 09:36:46;;;;;;;11.77;5.10;;;;;;;-1.76;81.39;98873.66;4200896;28;20240;-69
2022/11/18 09:39:13;;;;;;;7.63;4.37;;;;;;;-1.75;80.68;98875.34;4188886;28;20334;-70
2022/11/18 09:41:44;;;;;;;11.50;5.47;;;;;;;-1.54;80.82;98870.41;4181396;28;20644;-67
2022/11/18 09:44:35;;;;;;;10.43;4.63;;;;;;;-1.38;79.78;98862.34;4186525;28;21174;-70
2022/11/18 09:47:24;;;;;;;9.90;4.57;;;;;;;-1.48;78.92;98871.75;4181955;28;20960;-65
2022/11/18 09:49:51;;;;;;;9.13;4.73;;;;;;;-1.54;79.93;98872.19;4204276;28;20260;-66
2022/11/18 09:52:30;;;;;;;13.17;6.63;;;;;;;-1.42;80.65;98866.13;4182078;28;25325;-67
2022/11/18 09:55:10;;;;;;;13.37;5.67;;;;;;;-1.50;80.58;98864.06;4185715;28;20377;-67
2022/11/18 09:57:39;;;;;;;9.87;4.97;;;;;;;-1.55;79.39;98857.47;4192233;28;21440;-67
2022/11/18 10:00:13;;;;;;;9.93;4.97;;;;;;;-1.72;79.54;98859.47;4167357;28;20777;-66
2022/11/18 10:02:50;;;;;;;10.47;4.47;;;;;;;-1.84;79.27;98864.72;4180416;28;20411;-66
2022/11/18 10:05:22;;;;;;;9.00;4.33;;;;;;;-1.94;79.66;98869.75;4153830;28;20257;-71
2022/11/18 10:08:00;;;;;;;10.03;4.80;;;;;;;-1.88;80.08;98866.69;4167759;28;20239;-66
2022/11/18 10:10:38;;;;;;;9.33;4.57;;;;;;;-1.76;79.77;98872.84;4159744;28;20236;-67
2022/11/18 10:13:17;;;;;;;8.33;4.40;;;;;;;-1.72;78.93;98871.69;4159472;28;20682;-65
2022/11/18 10:16:16;;;;;;;8.33;4.53;;;;;;;-1.80;79.69;98874.84;4136605;28;22778;-68
2022/11/18 10:18:51;;;;;;;7.97;4.70;;;;;;;-1.61;79.42;98887.44;4162821;28;20230;-67
2022/11/18 10:21:48;;;;;;;11.40;5.03;;;;;;;-1.49;78.43;98881.34;4174229;28;20227;-66
2022/11/18 10:24:20;;;;;;;8.20;4.10;;;;;;;-1.64;77.82;98882.44;4203454;28;20241;-69
2022/11/18 10:26:54;;;;;;;7.10;3.87;;;;;;;-1.84;77.70;98875.97;4166339;28;21227;-73
2022/11/18 10:29:24;;;;;;;8.27;3.87;;;;;;;-1.77;78.13;98885.03;4174259;28;20242;-67
2022/11/18 10:32:11;;;;;;;6.57;3.50;;;;;;;-1.59;77.09;98890.78;4165247;28;20235;-73
2022/11/18 10:34:57;;;;;;;9.80;3.73;;;;;;;-1.45;77.21;98889.81;4194404;28;20237;-73
2022/11/18 10:37:32;;;;;;;6.50;3.30;;;;;;;-1.22;75.83;98892.56;4183270;28;20675;-71
2022/11/18 10:40:26;;;;;;;10.53;3.87;;;;;;;-1.09;75.50;98888.97;4168449;28;20239;-69
2022/11/18 10:42:56;;;;;;;5.17;3.10;;;;;;;-1.20;74.60;98899.34;4178848;28;20666;-69
2022/11/18 10:45:22;;;;;;;6.83;3.47;;;;;;;-1.11;75.35;98898.69;4188833;28;21461;-68
2022/11/18 10:48:08;;;;;;;14.10;4.03;;;;;;;-1.11;75.40;98900.47;4204641;28;20242;-72
2022/11/18 10:50:43;;;;;;;8.23;3.20;;;;;;;-1.28;75.70;98899.91;4177025;28;22461;-71
2022/11/18 10:53:32;;;;;;;7.33;3.37;;;;;;;-1.21;75.22;98905.53;4174425;28;20806;-73
2022/11/18 10:56:03;;;;;;;5.60;2.70;;;;;;;-1.22;74.37;98908.22;4197186;28;20308;-67
2022/11/18 10:58:31;;;;;;;5.10;2.90;;;;;;;-1.50;74.26;98902.31;4170304;28;20294;-70
2022/11/18 11:01:06;;;;;;;5.27;2.73;;;;;;;-1.62;73.71;98922.25;4181086;28;21180;-67
2022/11/18 11:03:41;;;;;;;4.17;2.17;;;;;;;-1.58;74.37;98917.69;4163582;28;21690;-68
2022/11/18 11:06:25;;;;;;;4.73;2.50;;;;;;;-1.51;73.66;98916.31;4167838;28;20302;-62
2022/11/18 11:08:55;;;;;;;7.03;2.90;;;;;;;-1.44;73.74;98925.38;4177502;28;20301;-71
2022/11/18 11:11:30;;;;;;;6.40;2.83;;;;;;;-1.30;73.79;98924.44;4166481;28;21790;-70
2022/11/18 11:14:20;;;;;;;6.17;2.73;;;;;;;-1.21;74.23;98925.56;4178522;28;20241;-68
2022/11/18 11:17:01;;;;;;;5.40;2.83;;;;;;;-1.29;73.73;98919.13;4170635;28;21501;-70
2022/11/18 11:19:35;;;;;;;5.40;3.10;;;;;;;-1.25;73.88;98924.09;4180077;28;20233;-69
2022/11/18 11:22:03;;;;;;;5.67;3.10;;;;;;;-1.17;72.15;98920.03;4162513;28;20374;-67
2022/11/18 11:24:30;;;;;;;5.77;2.70;;;;;;;-1.22;72.12;98934.31;4182563;28;20238;-72
2022/11/18 11:27:06;;;;;;;9.50;2.87;;;;;;;-1.18;71.18;98926.16;4174064;28;20382;-70
2022/11/18 11:30:13;;;;;;;4.10;2.47;;;;;;;-1.15;71.32;98920.75;4174397;28;20387;-67
2022/11/18 11:33:21;;;;;;;4.90;2.90;;;;;;;-1.19;71.82;98928.91;4176876;28;20415;-67
2022/11/18 11:36:16;;;;;;;5.40;3.10;;;;;;;-1.25;72.18;98913.66;4157429;28;20339;-71
2022/11/18 11:38:55;;;;;;;5.80;2.90;;;;;;;-1.00;72.53;98923.22;4174950;28;20324;-71
2022/11/18 11:41:36;;;;;;;8.23;3.33;;;;;;;-0.97;72.41;98925.59;4181991;28;20402;-70
2022/11/18 11:44:06;;;;;;;6.97;3.47;;;;;;;-1.03;76.45;98916.44;4178259;28;20497;-51
2022/11/18 11:47:45;;;;;;;7.83;3.30;;;;;;;-0.82;73.17;98923.66;4174326;28;21086;-72
2022/11/18 11:49:41;;;;;;;11.10;3.70;;;;;;;-1.17;73.44;98916.56;4178959;28;20241;-68
2022/11/18 11:52:16;;;;;;;5.00;3.13;;;;;;;-1.21;75.51;98915.13;4165786;28;21256;-66
2022/11/18 11:54:48;;;;;;;7.77;3.33;;;;;;;-1.23;74.60;98919.63;4176165;28;20346;-65
2022/11/18 11:57:52;;;;;;;5.80;3.50;;;;;;;-1.24;74.76;98918.78;4175528;28;20232;-66
2022/11/18 12:00:19;;;;;;;8.93;3.30;;;;;;;-1.07;75.45;98922.81;4173121;28;20374;-67
2022/11/18 12:03:37;;;;;;;10.77;3.90;;;;;;;-1.18;75.68;98920.94;4187111;28;20222;-70
2022/11/18 12:06:06;;;;;;;7.53;3.53;;;;;;;-1.19;75.51;98918.47;4181795;28;20241;-67